createdAt,value
2023-12-14T00:01:20.894Z,5.90
2023-12-14T00:03:48.423Z,4.80
2023-12-14T00:06:15.983Z,6.10
2023-12-14T00:08:43.485Z,6.00
2023-12-14T00:11:12.233Z,5.90
2023-12-14T00:13:40.054Z,5.80
2023-12-14T00:16:08.644Z,7.00
2023-12-14T00:18:37.111Z,4.30
2023-12-14T00:21:04.977Z,5.60
2023-12-14T00:23:32.356Z,5.50
2023-12-14T00:25:59.720Z,4.50
2023-12-14T00:28:29.591Z,4.30
2023-12-14T00:30:58.622Z,6.20
2023-12-14T00:33:26.213Z,4.60
2023-12-14T00:35:53.817Z,6.00
2023-12-14T00:38:21.369Z,4.10
2023-12-14T00:40:48.943Z,5.60
2023-12-14T00:43:16.953Z,4.50
2023-12-14T00:45:44.937Z,4.00
2023-12-14T00:48:12.445Z,5.20
2023-12-14T00:50:39.863Z,3.30
2023-12-14T00:53:07.271Z,4.10
2023-12-14T00:55:34.852Z,4.50
2023-12-14T00:58:02.271Z,3.80
2023-12-14T01:00:30.174Z,4.30
2023-12-14T01:02:57.538Z,3.70
2023-12-14T01:05:25.149Z,5.00
2023-12-14T01:07:52.583Z,5.70
2023-12-14T01:10:19.927Z,6.20
2023-12-14T01:12:47.288Z,6.60
2023-12-14T01:15:15.475Z,6.50
2023-12-14T01:17:43.000Z,5.50
2023-12-14T01:20:11.145Z,5.00
2023-12-14T01:22:38.744Z,4.30
2023-12-14T01:25:06.533Z,4.90
2023-12-14T01:27:33.866Z,4.90
2023-12-14T01:30:01.205Z,4.60
2023-12-14T01:32:28.524Z,4.80
2023-12-14T01:34:55.911Z,5.50
2023-12-14T01:37:23.281Z,5.30
2023-12-14T01:39:50.616Z,4.40
2023-12-14T01:42:17.948Z,4.70
2023-12-14T01:44:45.369Z,5.50
2023-12-14T01:47:12.808Z,6.10
2023-12-14T01:49:42.586Z,4.70
2023-12-14T01:52:10.152Z,6.50
2023-12-14T01:54:37.864Z,5.70
2023-12-14T01:57:05.388Z,5.60
2023-12-14T01:59:32.760Z,5.50
2023-12-14T02:02:00.665Z,4.60
2023-12-14T02:04:28.337Z,5.10
2023-12-14T02:06:55.812Z,5.80
2023-12-14T02:09:23.157Z,7.20
2023-12-14T02:11:50.713Z,4.90
2023-12-14T02:14:18.370Z,4.80
2023-12-14T02:16:46.219Z,6.40
2023-12-14T02:19:13.866Z,9.40
2023-12-14T02:21:41.258Z,7.20
2023-12-14T02:24:08.675Z,5.10
2023-12-14T02:26:36.048Z,5.70
2023-12-14T02:29:03.445Z,5.80
2023-12-14T02:31:30.937Z,6.50
2023-12-14T02:33:58.480Z,6.10
2023-12-14T02:36:25.821Z,6.00
2023-12-14T02:38:53.307Z,6.10
2023-12-14T02:41:20.782Z,5.20
2023-12-14T02:43:48.154Z,8.10
2023-12-14T02:46:16.843Z,6.50
2023-12-14T02:48:44.786Z,7.10
2023-12-14T02:51:16.105Z,5.10
2023-12-14T02:53:43.718Z,5.30
2023-12-14T02:56:12.174Z,6.80
2023-12-14T02:58:40.006Z,4.60
2023-12-14T03:01:07.686Z,6.50
2023-12-14T03:03:35.293Z,5.20
2023-12-14T03:06:02.878Z,5.20
2023-12-14T03:08:30.438Z,4.80
2023-12-14T03:10:58.548Z,4.30
2023-12-14T03:13:26.079Z,4.90
2023-12-14T03:15:53.975Z,4.60
2023-12-14T03:18:21.628Z,4.50
2023-12-14T03:20:49.000Z,6.10
2023-12-14T03:23:16.407Z,6.60
2023-12-14T03:25:43.917Z,5.80
2023-12-14T03:28:11.375Z,4.80
2023-12-14T03:30:38.747Z,4.90
2023-12-14T03:33:08.246Z,6.10
2023-12-14T03:35:37.107Z,4.30
2023-12-14T03:38:04.523Z,4.10
2023-12-14T03:40:32.075Z,3.60
2023-12-14T03:42:59.635Z,3.70
2023-12-14T03:45:27.158Z,3.30
2023-12-14T03:47:54.597Z,5.60
2023-12-14T03:50:22.030Z,5.30
2023-12-14T03:52:49.576Z,4.00
2023-12-14T03:55:17.174Z,3.90
2023-12-14T03:57:44.571Z,3.60
2023-12-14T04:00:13.890Z,4.40
2023-12-14T04:02:41.487Z,5.00
2023-12-14T04:05:11.804Z,2.90
2023-12-14T04:07:41.960Z,3.50
2023-12-14T04:10:10.497Z,5.00
2023-12-14T04:12:38.250Z,3.70
2023-12-14T04:15:07.190Z,3.50
2023-12-14T04:17:34.829Z,3.60
2023-12-14T04:20:02.487Z,3.50
2023-12-14T04:22:30.072Z,4.30
2023-12-14T04:24:57.451Z,3.90
2023-12-14T04:27:30.052Z,4.10
2023-12-14T04:29:57.466Z,4.00
2023-12-14T04:32:24.782Z,3.00
2023-12-14T04:34:52.385Z,2.10
2023-12-14T04:37:19.788Z,4.60
2023-12-14T04:39:47.154Z,3.10
2023-12-14T04:42:14.496Z,5.70
2023-12-14T04:44:41.937Z,3.30
2023-12-14T04:47:09.724Z,3.20
2023-12-14T04:49:37.275Z,2.70
2023-12-14T04:52:05.369Z,2.70
2023-12-14T04:54:32.965Z,2.00
2023-12-14T04:57:00.304Z,3.10
2023-12-14T04:59:27.658Z,5.30
2023-12-14T05:01:55.080Z,6.50
2023-12-14T05:04:22.449Z,9.70
2023-12-14T05:06:49.803Z,5.00
2023-12-14T05:09:17.160Z,7.60
2023-12-14T05:11:44.586Z,3.90
2023-12-14T05:14:11.994Z,4.80
2023-12-14T05:16:40.530Z,10.00
2023-12-14T05:19:08.275Z,2.40
2023-12-14T05:21:35.703Z,5.30
2023-12-14T05:24:04.047Z,3.60
2023-12-14T05:26:31.457Z,4.10
2023-12-14T05:28:58.845Z,4.00
2023-12-14T05:31:26.177Z,4.50
2023-12-14T05:33:53.682Z,2.80
2023-12-14T05:36:21.137Z,2.40
2023-12-14T05:38:48.495Z,2.50
2023-12-14T05:41:16.847Z,4.90
2023-12-14T05:43:44.334Z,4.20
2023-12-14T05:46:21.966Z,4.20
2023-12-14T05:48:50.760Z,3.60
2023-12-14T05:51:31.349Z,4.60
2023-12-14T05:53:58.977Z,5.10
2023-12-14T05:56:26.842Z,2.40
2023-12-14T05:58:54.250Z,2.50
2023-12-14T06:01:21.750Z,3.80
2023-12-14T06:03:49.415Z,11.00
2023-12-14T06:06:17.064Z,8.30
2023-12-14T06:08:44.583Z,3.50
2023-12-14T06:11:12.020Z,3.00
2023-12-14T06:13:39.809Z,7.90
2023-12-14T06:16:13.544Z,4.90
2023-12-14T06:18:43.236Z,4.50
2023-12-14T06:21:12.358Z,5.50
2023-12-14T06:23:39.736Z,3.40
2023-12-14T06:26:07.487Z,5.80
2023-12-14T06:28:35.073Z,5.10
2023-12-14T06:31:02.785Z,4.30
2023-12-14T06:33:30.798Z,6.30
2023-12-14T06:35:58.986Z,5.10
2023-12-14T06:38:26.354Z,5.70
2023-12-14T06:40:55.146Z,6.20
2023-12-14T06:43:22.541Z,6.90
2023-12-14T06:45:49.864Z,4.50
2023-12-14T06:48:17.375Z,5.20
2023-12-14T06:50:47.340Z,6.40
2023-12-14T06:53:17.204Z,9.60
2023-12-14T06:55:44.814Z,8.10
2023-12-14T06:58:12.895Z,17.80
2023-12-14T07:00:40.380Z,17.00
2023-12-14T07:03:07.800Z,17.50
2023-12-14T07:05:35.821Z,14.40
2023-12-14T07:08:03.387Z,9.70
2023-12-14T07:10:30.886Z,8.50
2023-12-14T07:12:59.928Z,20.10
2023-12-14T07:15:27.839Z,14.10
2023-12-14T07:17:55.476Z,7.60
2023-12-14T07:20:23.148Z,7.60
2023-12-14T07:22:50.561Z,7.70
2023-12-14T07:25:18.020Z,9.40
2023-12-14T07:27:47.650Z,16.20
2023-12-14T07:30:15.270Z,6.20
2023-12-14T07:32:42.679Z,4.90
2023-12-14T07:35:11.502Z,5.30
2023-12-14T07:37:38.971Z,13.20
2023-12-14T07:40:07.188Z,42.10
2023-12-14T07:42:34.839Z,22.30
2023-12-14T07:45:02.417Z,11.20
2023-12-14T07:47:29.878Z,7.00
2023-12-14T07:49:57.413Z,7.90
2023-12-14T07:52:24.790Z,16.90
2023-12-14T07:54:52.137Z,21.10
2023-12-14T07:57:19.657Z,22.70
2023-12-14T07:59:47.689Z,18.70
2023-12-14T08:02:15.134Z,13.30
2023-12-14T08:04:42.612Z,9.60
2023-12-14T08:07:10.040Z,9.00
2023-12-14T08:09:37.441Z,7.40
2023-12-14T08:12:05.441Z,4.10
2023-12-14T08:14:36.152Z,9.10
2023-12-14T08:17:04.049Z,11.10
2023-12-14T08:19:31.639Z,15.40
2023-12-14T08:21:59.100Z,7.90
2023-12-14T08:24:26.452Z,8.60
2023-12-14T08:26:54.061Z,7.20
2023-12-14T08:29:21.615Z,5.80
2023-12-14T08:31:49.178Z,6.50
2023-12-14T08:34:16.676Z,8.80
2023-12-14T08:36:44.248Z,8.00
2023-12-14T08:39:11.641Z,9.90
2023-12-14T08:41:39.016Z,8.20
2023-12-14T08:44:06.391Z,8.00
2023-12-14T08:46:44.801Z,6.70
2023-12-14T08:49:13.023Z,9.60
2023-12-14T08:51:40.649Z,7.40
2023-12-14T08:54:08.611Z,12.90
2023-12-14T08:56:36.549Z,17.80
2023-12-14T08:59:05.268Z,19.90
2023-12-14T09:01:33.160Z,10.80
2023-12-14T09:04:01.343Z,19.20
2023-12-14T09:06:28.849Z,14.90
2023-12-14T09:08:56.363Z,17.40
2023-12-14T09:11:23.788Z,11.80
2023-12-14T09:13:52.068Z,16.70
2023-12-14T09:16:20.421Z,21.00
2023-12-14T09:18:48.160Z,14.30
2023-12-14T09:21:16.201Z,11.70
2023-12-14T09:23:43.707Z,11.40
2023-12-14T09:26:11.810Z,11.90
2023-12-14T09:28:40.542Z,36.30
2023-12-14T09:31:09.367Z,29.90
2023-12-14T09:33:37.316Z,19.80
2023-12-14T09:36:05.373Z,26.70
2023-12-14T09:38:32.818Z,31.00
2023-12-14T09:41:00.251Z,32.00
2023-12-14T09:43:27.641Z,27.70
2023-12-14T09:45:56.115Z,31.20
2023-12-14T09:48:23.778Z,15.20
2023-12-14T09:50:51.221Z,11.40
2023-12-14T09:53:19.708Z,17.60
2023-12-14T09:55:47.525Z,7.60
2023-12-14T09:58:15.237Z,12.90
2023-12-14T10:00:42.797Z,27.30
2023-12-14T10:03:27.664Z,32.00
2023-12-14T10:05:59.395Z,10.70
2023-12-14T10:08:27.378Z,32.40
2023-12-14T10:10:56.411Z,28.50
2023-12-14T10:13:38.412Z,21.40
2023-12-14T10:16:06.875Z,17.50
2023-12-14T10:18:37.840Z,15.40
2023-12-14T10:21:08.151Z,16.80
2023-12-14T10:23:36.273Z,15.10
2023-12-14T10:26:05.913Z,26.50
2023-12-14T10:28:33.667Z,20.00
2023-12-14T10:31:01.157Z,27.90
2023-12-14T10:33:28.823Z,14.50
2023-12-14T10:35:56.511Z,23.00
2023-12-14T10:38:24.036Z,24.40
2023-12-14T10:40:52.509Z,17.40
2023-12-14T10:45:50.384Z,28.60
2023-12-14T10:48:21.764Z,51.40
2023-12-14T10:53:17.183Z,64.80
2023-12-14T10:55:45.213Z,37.30
2023-12-14T10:58:12.865Z,27.30
2023-12-14T11:00:40.437Z,17.90
2023-12-14T11:03:08.144Z,31.50
2023-12-14T11:05:36.200Z,37.30
2023-12-14T11:08:10.476Z,25.20
2023-12-14T11:10:45.845Z,22.20
2023-12-14T11:13:16.061Z,24.20
2023-12-14T11:15:53.395Z,19.10
2023-12-14T11:18:23.968Z,14.30
2023-12-14T11:20:56.049Z,17.40
2023-12-14T11:23:26.501Z,17.10
2023-12-14T11:25:58.121Z,14.60
2023-12-14T11:28:32.095Z,18.40
2023-12-14T11:31:00.002Z,18.00
2023-12-14T11:33:29.978Z,23.40
2023-12-14T11:35:58.333Z,21.80
2023-12-14T11:38:25.906Z,22.00
2023-12-14T11:40:53.653Z,19.20
2023-12-14T11:43:26.203Z,31.20
2023-12-14T11:45:55.544Z,39.80
2023-12-14T11:48:23.386Z,26.00
2023-12-14T11:50:50.917Z,33.20
2023-12-14T11:53:18.612Z,19.60
2023-12-14T11:55:46.081Z,21.80
2023-12-14T11:58:17.089Z,34.10
2023-12-14T12:00:45.742Z,36.30
2023-12-14T12:03:17.983Z,37.40
2023-12-14T12:05:49.919Z,35.00
2023-12-14T12:08:20.453Z,33.80
2023-12-14T12:10:48.706Z,21.70
2023-12-14T12:13:17.880Z,22.90
2023-12-14T12:15:46.063Z,28.70
2023-12-14T12:18:14.877Z,42.60
2023-12-14T12:20:42.450Z,33.80
2023-12-14T12:23:10.004Z,37.00
2023-12-14T12:25:37.552Z,29.60
2023-12-14T12:28:05.518Z,21.20
2023-12-14T12:30:33.266Z,17.40
2023-12-14T12:33:01.014Z,16.90
2023-12-14T12:35:31.287Z,16.20
2023-12-14T12:37:58.705Z,18.30
2023-12-14T12:40:31.235Z,17.10
2023-12-14T12:42:58.629Z,18.10
2023-12-14T12:45:29.518Z,25.70
2023-12-14T12:47:57.786Z,19.80
2023-12-14T12:50:25.541Z,15.90
2023-12-14T12:52:53.069Z,20.90
2023-12-14T12:55:20.540Z,23.60
2023-12-14T12:57:49.303Z,21.30
2023-12-14T13:00:17.210Z,19.00
2023-12-14T13:02:46.205Z,23.40
2023-12-14T13:05:16.301Z,25.20
2023-12-14T13:07:46.556Z,20.20
2023-12-14T13:10:25.091Z,17.10
2023-12-14T13:12:57.768Z,17.20
2023-12-14T13:15:27.207Z,20.90
2023-12-14T13:17:55.298Z,20.80
2023-12-14T13:20:23.295Z,22.10
2023-12-14T13:22:51.483Z,26.90
2023-12-14T13:25:18.953Z,26.40
2023-12-14T13:27:46.496Z,23.30
2023-12-14T13:30:18.750Z,27.20
2023-12-14T13:32:47.028Z,32.10
2023-12-14T13:35:14.930Z,29.70
2023-12-14T13:37:42.749Z,30.80
2023-12-14T13:40:13.758Z,34.70
2023-12-14T13:42:50.852Z,36.80
2023-12-14T13:45:31.653Z,43.10
2023-12-14T13:48:00.239Z,46.00
2023-12-14T13:50:29.068Z,61.10
2023-12-14T13:52:57.378Z,54.10
2023-12-14T13:55:24.948Z,75.90
2023-12-14T13:57:52.645Z,80.90
2023-12-14T14:00:21.041Z,77.60
2023-12-14T14:02:48.400Z,58.90
2023-12-14T14:05:16.151Z,60.40
2023-12-14T14:07:43.741Z,51.30
2023-12-14T14:10:11.395Z,53.60
2023-12-14T14:12:39.405Z,54.50
2023-12-14T14:15:08.468Z,51.80
2023-12-14T14:17:36.244Z,62.40
2023-12-14T14:20:04.443Z,55.20
2023-12-14T14:22:32.129Z,59.80
2023-12-14T14:24:59.595Z,50.00
2023-12-14T14:27:27.224Z,63.20
2023-12-14T14:29:56.893Z,71.00
2023-12-14T14:32:24.448Z,75.00
2023-12-14T14:34:52.337Z,62.80
2023-12-14T14:37:20.363Z,57.00
2023-12-14T14:39:48.712Z,57.20
2023-12-14T14:42:16.238Z,57.50
2023-12-14T14:44:43.645Z,46.70
2023-12-14T14:47:11.186Z,48.30
2023-12-14T14:49:38.569Z,51.20
2023-12-14T14:52:06.273Z,49.30
2023-12-14T14:54:33.649Z,51.10
2023-12-14T14:57:02.863Z,62.00
2023-12-14T14:59:31.723Z,61.30
2023-12-14T15:02:01.380Z,56.40
2023-12-14T15:04:28.830Z,57.50
2023-12-14T15:06:56.653Z,54.00
2023-12-14T15:09:24.100Z,67.50
2023-12-14T15:11:51.598Z,60.90
2023-12-14T15:14:19.747Z,71.40
2023-12-14T15:16:47.961Z,52.40
2023-12-14T15:19:15.751Z,73.30
2023-12-14T15:21:43.577Z,61.90
2023-12-14T15:24:10.992Z,63.00
2023-12-14T15:26:38.478Z,69.30
2023-12-14T15:29:05.996Z,64.00
2023-12-14T15:31:33.767Z,70.30
2023-12-14T15:34:02.530Z,74.20
2023-12-14T15:36:31.178Z,63.40
2023-12-14T15:39:00.487Z,61.20
2023-12-14T15:41:29.853Z,46.50
2023-12-14T15:43:57.400Z,109.50
2023-12-14T15:46:24.808Z,79.80
2023-12-14T15:48:52.216Z,70.70
2023-12-14T15:51:19.643Z,54.40
2023-12-14T15:53:47.076Z,49.30
2023-12-14T15:56:15.684Z,57.20
2023-12-14T15:58:43.309Z,45.70
2023-12-14T16:01:11.746Z,29.40
2023-12-14T16:03:39.120Z,28.00
2023-12-14T16:06:07.103Z,28.70
2023-12-14T16:08:36.251Z,22.00
2023-12-14T16:11:03.992Z,20.10
2023-12-14T16:13:31.390Z,20.70
2023-12-14T16:15:59.306Z,24.30
2023-12-14T16:18:26.993Z,22.80
2023-12-14T16:20:55.227Z,19.80
2023-12-14T16:23:22.666Z,24.00
2023-12-14T16:25:50.873Z,32.80
2023-12-14T16:28:21.287Z,20.20
2023-12-14T16:30:48.782Z,19.20
2023-12-14T16:33:16.320Z,18.40
2023-12-14T16:35:43.814Z,21.60
2023-12-14T16:38:11.376Z,19.30
2023-12-14T16:40:38.815Z,22.00
2023-12-14T16:43:06.239Z,22.20
2023-12-14T16:45:33.587Z,19.10
2023-12-14T16:48:01.688Z,22.30
2023-12-14T16:50:29.549Z,20.60
2023-12-14T16:52:57.047Z,22.40
2023-12-14T16:55:25.090Z,16.60
2023-12-14T16:57:52.588Z,18.30
2023-12-14T17:00:20.109Z,19.70
2023-12-14T17:02:48.225Z,35.90
2023-12-14T17:05:15.787Z,36.60
2023-12-14T17:07:43.202Z,27.50
2023-12-14T17:10:10.629Z,44.50
2023-12-14T17:12:38.585Z,49.20
2023-12-14T17:15:09.908Z,54.10
2023-12-14T17:17:37.498Z,52.60
2023-12-14T17:20:05.646Z,46.60
2023-12-14T17:22:37.233Z,37.60
2023-12-14T17:25:05.307Z,39.70
2023-12-14T17:27:33.852Z,34.70
2023-12-14T17:30:01.396Z,33.20
2023-12-14T17:32:29.181Z,19.80
2023-12-14T17:34:56.858Z,22.60
2023-12-14T17:37:24.371Z,21.50
2023-12-14T17:39:51.997Z,29.10
2023-12-14T17:42:20.363Z,21.30
2023-12-14T17:44:48.167Z,22.20
2023-12-14T17:47:15.621Z,15.90
2023-12-14T17:49:43.078Z,21.80
2023-12-14T17:52:10.486Z,19.20
2023-12-14T17:54:38.978Z,19.30
2023-12-14T17:57:06.686Z,18.90
2023-12-14T17:59:34.407Z,18.80
2023-12-14T18:02:01.840Z,22.70
2023-12-14T18:04:29.276Z,16.70
2023-12-14T18:06:56.616Z,25.60
2023-12-14T18:09:24.037Z,19.70
2023-12-14T18:11:51.385Z,24.20
2023-12-14T18:14:18.881Z,20.40
2023-12-14T18:16:46.957Z,21.90
2023-12-14T18:19:15.052Z,22.20
2023-12-14T18:21:42.745Z,21.70
2023-12-14T18:24:10.451Z,23.30
2023-12-14T18:26:37.947Z,25.70
2023-12-14T18:29:05.407Z,23.20
2023-12-14T18:31:34.488Z,25.60
2023-12-14T18:34:02.144Z,25.60
2023-12-14T18:36:29.607Z,22.60
2023-12-14T18:38:57.121Z,24.40
2023-12-14T18:41:25.165Z,20.30
2023-12-14T18:43:53.158Z,25.00
2023-12-14T18:46:20.683Z,25.80
2023-12-14T18:48:48.094Z,45.90
2023-12-14T18:51:15.724Z,20.70
2023-12-14T18:53:43.141Z,20.50
2023-12-14T18:56:10.657Z,23.00
2023-12-14T18:58:38.097Z,22.50
2023-12-14T19:01:06.443Z,22.00
2023-12-14T19:03:36.556Z,21.80
2023-12-14T19:06:10.467Z,23.50
2023-12-14T19:08:41.864Z,18.50
2023-12-14T19:11:19.560Z,27.30
2023-12-14T19:13:47.581Z,30.70
2023-12-14T19:16:24.242Z,34.80
2023-12-14T19:18:51.831Z,29.50
2023-12-14T19:21:20.334Z,19.10
2023-12-14T19:23:48.147Z,19.70
2023-12-14T19:26:22.636Z,17.40
2023-12-14T19:28:50.990Z,16.50
2023-12-14T19:31:20.326Z,19.80
2023-12-14T19:33:48.356Z,18.40
2023-12-14T19:36:15.972Z,23.00
2023-12-14T19:38:44.971Z,21.50
2023-12-14T19:41:14.146Z,14.70
2023-12-14T19:43:46.124Z,20.90
2023-12-14T19:46:17.086Z,28.30
2023-12-14T19:48:45.351Z,21.00
2023-12-14T19:51:15.466Z,19.80
2023-12-14T19:53:52.680Z,25.50
2023-12-14T19:56:26.421Z,18.60
2023-12-14T19:59:00.408Z,19.30
2023-12-14T20:01:45.015Z,20.80
2023-12-14T20:04:14.910Z,22.00
2023-12-14T20:06:59.374Z,20.40
2023-12-14T20:09:27.012Z,22.50
2023-12-14T20:11:54.937Z,21.40
2023-12-14T20:14:22.992Z,20.90
2023-12-14T20:16:51.842Z,16.30
2023-12-14T20:19:19.621Z,19.40
2023-12-14T20:21:47.102Z,20.50
2023-12-14T20:24:14.577Z,19.10
2023-12-14T20:26:41.988Z,19.70
2023-12-14T20:29:09.589Z,18.30
2023-12-14T20:31:37.130Z,24.90
2023-12-14T20:34:04.788Z,16.20
2023-12-14T20:36:34.832Z,19.60
2023-12-14T20:39:04.474Z,21.10
2023-12-14T20:41:32.088Z,25.90
2023-12-14T20:43:59.555Z,16.70
2023-12-14T20:46:26.942Z,26.80
2023-12-14T20:48:54.438Z,17.40
2023-12-14T20:51:23.814Z,19.70
2023-12-14T20:53:51.244Z,19.60
2023-12-14T20:56:18.669Z,22.00
2023-12-14T20:58:46.332Z,19.60
2023-12-14T21:01:13.774Z,18.40
2023-12-14T21:03:43.420Z,24.60
2023-12-14T21:06:11.004Z,25.90
2023-12-14T21:08:38.591Z,20.70
2023-12-14T21:11:06.894Z,19.00
2023-12-14T21:13:35.491Z,20.40
2023-12-14T21:16:03.605Z,18.30
2023-12-14T21:18:31.311Z,19.30
2023-12-14T21:20:58.874Z,22.90
2023-12-14T21:23:26.390Z,23.50
2023-12-14T21:26:04.815Z,22.20
2023-12-14T21:28:32.473Z,20.20
2023-12-14T21:31:00.103Z,26.30
2023-12-14T21:33:28.758Z,17.10
2023-12-14T21:35:56.640Z,26.40
2023-12-14T21:38:24.087Z,16.80
2023-12-14T21:40:51.545Z,18.50
2023-12-14T21:43:20.735Z,25.90
2023-12-14T21:45:48.114Z,23.40
2023-12-14T21:48:16.488Z,18.80
2023-12-14T21:50:43.911Z,18.80
2023-12-14T21:53:11.423Z,20.60
2023-12-14T21:55:38.786Z,23.00
2023-12-14T21:58:06.220Z,16.50
2023-12-14T22:00:33.626Z,19.10
2023-12-14T22:03:01.065Z,15.10
2023-12-14T22:05:28.669Z,17.10
2023-12-14T22:07:56.215Z,18.50
2023-12-14T22:10:23.843Z,15.70
2023-12-14T22:12:51.155Z,18.20
2023-12-14T22:15:19.118Z,16.20
2023-12-14T22:17:47.863Z,20.50
2023-12-14T22:20:15.380Z,22.60
2023-12-14T22:22:42.794Z,22.00
2023-12-14T22:25:10.243Z,21.30
2023-12-14T22:27:37.905Z,19.20
2023-12-14T22:30:08.761Z,21.80
2023-12-14T22:32:36.349Z,21.00
2023-12-14T22:35:03.942Z,20.40
2023-12-14T22:37:31.458Z,26.20
2023-12-14T22:39:58.839Z,47.30
2023-12-14T22:42:26.273Z,45.90
2023-12-14T22:44:53.626Z,34.40
2023-12-14T22:47:20.978Z,35.10
2023-12-14T22:49:48.607Z,30.70
2023-12-14T22:52:16.128Z,27.10
2023-12-14T22:54:43.481Z,26.70
2023-12-14T22:57:10.840Z,24.10
2023-12-14T22:59:40.024Z,30.30
2023-12-14T23:02:07.518Z,19.50
2023-12-14T23:04:35.265Z,15.40
2023-12-14T23:07:03.310Z,19.60
2023-12-14T23:09:30.781Z,29.60
2023-12-14T23:11:59.290Z,25.70
2023-12-14T23:14:26.705Z,22.20
2023-12-14T23:16:54.548Z,34.30
2023-12-14T23:19:22.104Z,24.00
2023-12-14T23:21:49.509Z,24.90
2023-12-14T23:24:16.918Z,28.30
2023-12-14T23:26:44.341Z,18.30
2023-12-14T23:29:11.785Z,27.40
2023-12-14T23:31:39.122Z,17.60
2023-12-14T23:34:06.490Z,31.90
2023-12-14T23:36:33.961Z,33.40
2023-12-14T23:39:01.473Z,28.70
2023-12-14T23:41:28.880Z,22.50
2023-12-14T23:43:56.621Z,21.70
2023-12-14T23:46:24.081Z,40.70
2023-12-14T23:48:51.635Z,29.90
2023-12-14T23:51:18.994Z,20.00
2023-12-14T23:53:46.430Z,37.40
2023-12-14T23:56:13.891Z,35.50
2023-12-14T23:58:41.240Z,30.30
